sensor_id;sensor_type;location;lat;lon;timestamp;P1;durP1;ratioP1;P2;durP2;ratioP2
253;SDS011;590;48.772;8.846;2023-08-06T00:01:28;3.10;;;2.90;;
253;SDS011;590;48.772;8.846;2023-08-06T00:03:56;3.80;;;3.60;;
253;SDS011;590;48.772;8.846;2023-08-06T00:06:25;3.30;;;3.10;;
253;SDS011;590;48.772;8.846;2023-08-06T00:08:53;2.80;;;2.60;;
253;SDS011;590;48.772;8.846;2023-08-06T00:11:22;3.20;;;2.97;;
253;SDS011;590;48.772;8.846;2023-08-06T00:13:50;3.87;;;3.47;;
253;SDS011;590;48.772;8.846;2023-08-06T00:16:18;3.57;;;3.37;;
253;SDS011;590;48.772;8.846;2023-08-06T00:18:48;5.63;;;3.47;;
253;SDS011;590;48.772;8.846;2023-08-06T00:21:16;3.30;;;3.10;;
253;SDS011;590;48.772;8.846;2023-08-06T00:23:44;3.27;;;2.90;;
253;SDS011;590;48.772;8.846;2023-08-06T00:26:12;3.67;;;2.63;;
253;SDS011;590;48.772;8.846;2023-08-06T00:28:40;2.53;;;2.33;;
253;SDS011;590;48.772;8.846;2023-08-06T00:31:09;2.60;;;2.40;;
253;SDS011;590;48.772;8.846;2023-08-06T00:33:37;2.40;;;2.20;;
253;SDS011;590;48.772;8.846;2023-08-06T00:36:07;2.90;;;2.43;;
253;SDS011;590;48.772;8.846;2023-08-06T00:38:35;3.33;;;2.10;;
253;SDS011;590;48.772;8.846;2023-08-06T00:41:03;3.03;;;2.83;;
253;SDS011;590;48.772;8.846;2023-08-06T00:43:31;3.00;;;2.80;;
253;SDS011;590;48.772;8.846;2023-08-06T00:46:00;2.70;;;2.47;;
253;SDS011;590;48.772;8.846;2023-08-06T00:48:28;3.60;;;2.70;;
253;SDS011;590;48.772;8.846;2023-08-06T00:50:56;2.50;;;2.30;;
253;SDS011;590;48.772;8.846;2023-08-06T00:53:26;3.07;;;2.10;;
253;SDS011;590;48.772;8.846;2023-08-06T00:55:54;3.37;;;3.17;;
253;SDS011;590;48.772;8.846;2023-08-06T00:58:24;2.87;;;2.27;;
253;SDS011;590;48.772;8.846;2023-08-06T01:00:53;3.53;;;2.80;;
253;SDS011;590;48.772;8.846;2023-08-06T01:03:21;2.30;;;2.10;;
253;SDS011;590;48.772;8.846;2023-08-06T01:05:49;3.00;;;2.80;;
253;SDS011;590;48.772;8.846;2023-08-06T01:08:21;2.73;;;2.53;;
253;SDS011;590;48.772;8.846;2023-08-06T01:11:00;3.00;;;2.80;;
253;SDS011;590;48.772;8.846;2023-08-06T01:13:41;2.73;;;2.60;;
253;SDS011;590;48.772;8.846;2023-08-06T01:16:14;2.77;;;2.57;;
253;SDS011;590;48.772;8.846;2023-08-06T01:18:43;2.70;;;2.50;;
253;SDS011;590;48.772;8.846;2023-08-06T01:21:14;3.27;;;3.07;;
253;SDS011;590;48.772;8.846;2023-08-06T01:23:42;2.67;;;2.47;;
253;SDS011;590;48.772;8.846;2023-08-06T01:26:54;2.70;;;2.50;;
253;SDS011;590;48.772;8.846;2023-08-06T01:29:15;2.90;;;2.70;;
253;SDS011;590;48.772;8.846;2023-08-06T01:31:48;3.20;;;2.87;;
253;SDS011;590;48.772;8.846;2023-08-06T01:34:20;2.63;;;2.43;;
253;SDS011;590;48.772;8.846;2023-08-06T01:36:52;3.10;;;2.90;;
253;SDS011;590;48.772;8.846;2023-08-06T01:39:20;2.80;;;2.60;;
253;SDS011;590;48.772;8.846;2023-08-06T01:41:48;2.90;;;2.70;;
253;SDS011;590;48.772;8.846;2023-08-06T01:44:17;2.60;;;2.40;;
253;SDS011;590;48.772;8.846;2023-08-06T01:46:45;2.70;;;2.53;;
253;SDS011;590;48.772;8.846;2023-08-06T01:49:13;3.07;;;2.87;;
253;SDS011;590;48.772;8.846;2023-08-06T01:51:41;2.43;;;2.23;;
253;SDS011;590;48.772;8.846;2023-08-06T01:54:11;2.70;;;2.50;;
253;SDS011;590;48.772;8.846;2023-08-06T01:56:39;2.93;;;2.50;;
253;SDS011;590;48.772;8.846;2023-08-06T01:59:07;2.83;;;2.63;;
253;SDS011;590;48.772;8.846;2023-08-06T02:01:41;2.60;;;2.40;;
253;SDS011;590;48.772;8.846;2023-08-06T02:04:09;2.90;;;2.70;;
253;SDS011;590;48.772;8.846;2023-08-06T02:06:37;2.67;;;2.47;;
253;SDS011;590;48.772;8.846;2023-08-06T02:09:05;2.57;;;2.37;;
253;SDS011;590;48.772;8.846;2023-08-06T02:11:34;3.17;;;2.80;;
253;SDS011;590;48.772;8.846;2023-08-06T02:14:02;2.80;;;2.60;;
253;SDS011;590;48.772;8.846;2023-08-06T02:16:31;3.30;;;2.23;;
253;SDS011;590;48.772;8.846;2023-08-06T02:18:59;2.70;;;2.50;;
253;SDS011;590;48.772;8.846;2023-08-06T02:21:27;2.67;;;2.47;;
253;SDS011;590;48.772;8.846;2023-08-06T02:23:55;2.90;;;2.70;;
253;SDS011;590;48.772;8.846;2023-08-06T02:26:23;2.80;;;2.60;;
253;SDS011;590;48.772;8.846;2023-08-06T02:28:52;1.90;;;1.80;;
253;SDS011;590;48.772;8.846;2023-08-06T02:31:20;2.20;;;2.00;;
253;SDS011;590;48.772;8.846;2023-08-06T02:33:48;2.70;;;2.50;;
253;SDS011;590;48.772;8.846;2023-08-06T02:36:16;2.30;;;2.10;;
253;SDS011;590;48.772;8.846;2023-08-06T02:38:44;2.90;;;2.40;;
253;SDS011;590;48.772;8.846;2023-08-06T02:41:12;2.80;;;2.60;;
253;SDS011;590;48.772;8.846;2023-08-06T02:43:40;2.50;;;2.30;;
253;SDS011;590;48.772;8.846;2023-08-06T02:46:10;2.63;;;2.00;;
253;SDS011;590;48.772;8.846;2023-08-06T02:48:38;6.00;;;2.40;;
253;SDS011;590;48.772;8.846;2023-08-06T02:51:06;2.60;;;2.40;;
253;SDS011;590;48.772;8.846;2023-08-06T02:53:34;3.00;;;2.00;;
253;SDS011;590;48.772;8.846;2023-08-06T02:56:02;2.53;;;2.37;;
253;SDS011;590;48.772;8.846;2023-08-06T02:58:30;2.33;;;2.13;;
253;SDS011;590;48.772;8.846;2023-08-06T03:00:59;2.67;;;2.40;;
253;SDS011;590;48.772;8.846;2023-08-06T03:03:30;2.53;;;2.30;;
253;SDS011;590;48.772;8.846;2023-08-06T03:05:59;2.13;;;1.97;;
253;SDS011;590;48.772;8.846;2023-08-06T03:08:27;2.40;;;2.23;;
253;SDS011;590;48.772;8.846;2023-08-06T03:10:56;2.57;;;2.10;;
253;SDS011;590;48.772;8.846;2023-08-06T03:13:24;1.87;;;1.83;;
253;SDS011;590;48.772;8.846;2023-08-06T03:15:52;2.27;;;2.07;;
253;SDS011;590;48.772;8.846;2023-08-06T03:18:21;2.63;;;2.47;;
253;SDS011;590;48.772;8.846;2023-08-06T03:20:51;2.30;;;2.10;;
253;SDS011;590;48.772;8.846;2023-08-06T03:23:19;2.20;;;2.00;;
253;SDS011;590;48.772;8.846;2023-08-06T03:25:47;2.17;;;2.00;;
253;SDS011;590;48.772;8.846;2023-08-06T03:28:15;2.93;;;2.40;;
253;SDS011;590;48.772;8.846;2023-08-06T03:30:43;2.17;;;2.00;;
253;SDS011;590;48.772;8.846;2023-08-06T03:33:11;2.43;;;2.23;;
253;SDS011;590;48.772;8.846;2023-08-06T03:35:39;2.20;;;2.00;;
253;SDS011;590;48.772;8.846;2023-08-06T03:38:09;3.80;;;2.40;;
253;SDS011;590;48.772;8.846;2023-08-06T03:40:37;2.77;;;1.83;;
253;SDS011;590;48.772;8.846;2023-08-06T03:43:05;1.90;;;1.90;;
253;SDS011;590;48.772;8.846;2023-08-06T03:45:33;2.37;;;2.20;;
253;SDS011;590;48.772;8.846;2023-08-06T03:48:01;2.70;;;2.00;;
253;SDS011;590;48.772;8.846;2023-08-06T03:50:29;2.83;;;1.97;;
253;SDS011;590;48.772;8.846;2023-08-06T03:52:57;1.73;;;1.70;;
253;SDS011;590;48.772;8.846;2023-08-06T03:55:27;2.00;;;1.80;;
253;SDS011;590;48.772;8.846;2023-08-06T03:57:55;2.00;;;1.90;;
253;SDS011;590;48.772;8.846;2023-08-06T04:00:23;1.97;;;1.70;;
253;SDS011;590;48.772;8.846;2023-08-06T04:02:51;1.63;;;1.53;;
253;SDS011;590;48.772;8.846;2023-08-06T04:05:19;1.67;;;1.63;;
253;SDS011;590;48.772;8.846;2023-08-06T04:07:47;1.33;;;1.30;;
253;SDS011;590;48.772;8.846;2023-08-06T04:10:15;1.70;;;1.60;;
253;SDS011;590;48.772;8.846;2023-08-06T04:12:45;1.43;;;1.40;;
253;SDS011;590;48.772;8.846;2023-08-06T04:15:13;1.53;;;1.50;;
253;SDS011;590;48.772;8.846;2023-08-06T04:17:41;1.97;;;1.87;;
253;SDS011;590;48.772;8.846;2023-08-06T04:20:09;2.30;;;1.80;;
253;SDS011;590;48.772;8.846;2023-08-06T04:22:37;1.87;;;1.77;;
253;SDS011;590;48.772;8.846;2023-08-06T04:25:06;2.03;;;1.53;;
253;SDS011;590;48.772;8.846;2023-08-06T04:27:34;2.03;;;1.27;;
253;SDS011;590;48.772;8.846;2023-08-06T04:30:05;2.07;;;1.50;;
253;SDS011;590;48.772;8.846;2023-08-06T04:32:35;1.73;;;1.30;;
253;SDS011;590;48.772;8.846;2023-08-06T04:35:04;2.17;;;1.30;;
253;SDS011;590;48.772;8.846;2023-08-06T04:37:32;1.40;;;1.30;;
253;SDS011;590;48.772;8.846;2023-08-06T04:40:03;2.13;;;0.90;;
253;SDS011;590;48.772;8.846;2023-08-06T04:42:31;1.23;;;1.20;;
253;SDS011;590;48.772;8.846;2023-08-06T04:45:00;1.43;;;1.30;;
253;SDS011;590;48.772;8.846;2023-08-06T04:47:30;1.37;;;1.07;;
253;SDS011;590;48.772;8.846;2023-08-06T04:49:58;2.40;;;1.10;;
253;SDS011;590;48.772;8.846;2023-08-06T04:52:26;0.83;;;0.83;;
253;SDS011;590;48.772;8.846;2023-08-06T04:54:54;0.87;;;0.80;;
253;SDS011;590;48.772;8.846;2023-08-06T04:57:22;1.53;;;0.63;;
253;SDS011;590;48.772;8.846;2023-08-06T04:59:51;1.23;;;0.77;;
253;SDS011;590;48.772;8.846;2023-08-06T05:02:19;1.30;;;0.73;;
253;SDS011;590;48.772;8.846;2023-08-06T05:04:48;1.47;;;0.90;;
253;SDS011;590;48.772;8.846;2023-08-06T05:07:16;1.23;;;1.10;;
253;SDS011;590;48.772;8.846;2023-08-06T05:09:45;0.93;;;0.50;;
253;SDS011;590;48.772;8.846;2023-08-06T05:12:13;0.67;;;0.57;;
253;SDS011;590;48.772;8.846;2023-08-06T05:14:41;1.23;;;0.70;;
253;SDS011;590;48.772;8.846;2023-08-06T05:17:09;0.70;;;0.60;;
253;SDS011;590;48.772;8.846;2023-08-06T05:19:37;0.90;;;0.70;;
253;SDS011;590;48.772;8.846;2023-08-06T05:22:06;1.03;;;0.50;;
253;SDS011;590;48.772;8.846;2023-08-06T05:24:34;0.80;;;0.67;;
253;SDS011;590;48.772;8.846;2023-08-06T05:27:03;1.73;;;0.63;;
253;SDS011;590;48.772;8.846;2023-08-06T05:29:31;1.43;;;0.70;;
253;SDS011;590;48.772;8.846;2023-08-06T05:31:59;0.80;;;0.70;;
253;SDS011;590;48.772;8.846;2023-08-06T05:34:28;1.20;;;0.70;;
253;SDS011;590;48.772;8.846;2023-08-06T05:36:56;1.63;;;0.90;;
253;SDS011;590;48.772;8.846;2023-08-06T05:39:25;0.87;;;0.60;;
253;SDS011;590;48.772;8.846;2023-08-06T05:41:53;1.70;;;0.60;;
253;SDS011;590;48.772;8.846;2023-08-06T05:44:22;0.70;;;0.50;;
253;SDS011;590;48.772;8.846;2023-08-06T05:46:50;1.27;;;1.10;;
253;SDS011;590;48.772;8.846;2023-08-06T05:49:19;2.07;;;1.20;;
253;SDS011;590;48.772;8.846;2023-08-06T05:51:47;0.70;;;0.60;;
253;SDS011;590;48.772;8.846;2023-08-06T05:54:17;1.00;;;0.60;;
253;SDS011;590;48.772;8.846;2023-08-06T05:56:46;1.70;;;0.90;;
253;SDS011;590;48.772;8.846;2023-08-06T05:59:14;1.20;;;0.60;;
253;SDS011;590;48.772;8.846;2023-08-06T06:01:42;0.73;;;0.70;;
253;SDS011;590;48.772;8.846;2023-08-06T06:04:10;1.10;;;0.50;;
253;SDS011;590;48.772;8.846;2023-08-06T06:06:38;1.10;;;0.80;;
253;SDS011;590;48.772;8.846;2023-08-06T06:09:08;1.63;;;0.60;;
253;SDS011;590;48.772;8.846;2023-08-06T06:11:36;1.43;;;0.80;;
253;SDS011;590;48.772;8.846;2023-08-06T06:14:05;1.00;;;0.60;;
253;SDS011;590;48.772;8.846;2023-08-06T06:16:33;1.93;;;0.80;;
253;SDS011;590;48.772;8.846;2023-08-06T06:19:01;1.17;;;0.50;;
253;SDS011;590;48.772;8.846;2023-08-06T06:21:29;0.90;;;0.50;;
253;SDS011;590;48.772;8.846;2023-08-06T06:23:57;0.90;;;0.80;;
253;SDS011;590;48.772;8.846;2023-08-06T06:26:25;0.60;;;0.50;;
253;SDS011;590;48.772;8.846;2023-08-06T06:28:54;0.80;;;0.60;;
253;SDS011;590;48.772;8.846;2023-08-06T06:31:24;0.90;;;0.43;;
253;SDS011;590;48.772;8.846;2023-08-06T06:33:52;1.00;;;0.53;;
253;SDS011;590;48.772;8.846;2023-08-06T06:36:20;0.77;;;0.40;;
253;SDS011;590;48.772;8.846;2023-08-06T06:38:50;0.50;;;0.40;;
253;SDS011;590;48.772;8.846;2023-08-06T06:41:18;1.40;;;0.47;;
253;SDS011;590;48.772;8.846;2023-08-06T06:43:46;0.50;;;0.40;;
253;SDS011;590;48.772;8.846;2023-08-06T06:46:14;1.40;;;0.40;;
253;SDS011;590;48.772;8.846;2023-08-06T06:48:43;1.20;;;0.60;;
253;SDS011;590;48.772;8.846;2023-08-06T06:51:11;0.70;;;0.40;;
253;SDS011;590;48.772;8.846;2023-08-06T06:53:39;0.50;;;0.30;;
253;SDS011;590;48.772;8.846;2023-08-06T06:56:07;0.50;;;0.30;;
253;SDS011;590;48.772;8.846;2023-08-06T06:58:35;0.50;;;0.30;;
253;SDS011;590;48.772;8.846;2023-08-06T07:01:05;0.80;;;0.40;;
253;SDS011;590;48.772;8.846;2023-08-06T07:03:33;0.80;;;0.37;;
253;SDS011;590;48.772;8.846;2023-08-06T07:06:02;1.23;;;0.50;;
253;SDS011;590;48.772;8.846;2023-08-06T07:08:31;0.50;;;0.30;;
253;SDS011;590;48.772;8.846;2023-08-06T07:11:00;0.50;;;0.50;;
253;SDS011;590;48.772;8.846;2023-08-06T07:13:29;0.50;;;0.30;;
253;SDS011;590;48.772;8.846;2023-08-06T07:15:57;0.60;;;0.40;;
253;SDS011;590;48.772;8.846;2023-08-06T07:18:25;0.50;;;0.30;;
253;SDS011;590;48.772;8.846;2023-08-06T07:20:54;0.50;;;0.30;;
253;SDS011;590;48.772;8.846;2023-08-06T07:23:24;0.50;;;0.30;;
253;SDS011;590;48.772;8.846;2023-08-06T07:25:53;0.50;;;0.30;;
253;SDS011;590;48.772;8.846;2023-08-06T07:28:21;0.93;;;0.40;;
253;SDS011;590;48.772;8.846;2023-08-06T07:30:49;0.40;;;0.30;;
253;SDS011;590;48.772;8.846;2023-08-06T07:33:17;0.40;;;0.30;;
253;SDS011;590;48.772;8.846;2023-08-06T07:35:45;1.07;;;0.30;;
253;SDS011;590;48.772;8.846;2023-08-06T07:38:13;1.13;;;0.40;;
253;SDS011;590;48.772;8.846;2023-08-06T07:40:42;0.83;;;0.30;;
253;SDS011;590;48.772;8.846;2023-08-06T07:43:10;0.50;;;0.30;;
253;SDS011;590;48.772;8.846;2023-08-06T07:45:38;0.40;;;0.30;;
253;SDS011;590;48.772;8.846;2023-08-06T07:48:07;0.60;;;0.30;;
253;SDS011;590;48.772;8.846;2023-08-06T07:50:35;1.80;;;0.30;;
253;SDS011;590;48.772;8.846;2023-08-06T07:53:03;0.50;;;0.30;;
253;SDS011;590;48.772;8.846;2023-08-06T07:55:31;0.90;;;0.30;;
253;SDS011;590;48.772;8.846;2023-08-06T07:58:00;0.50;;;0.30;;
253;SDS011;590;48.772;8.846;2023-08-06T08:00:28;0.47;;;0.30;;
253;SDS011;590;48.772;8.846;2023-08-06T08:02:56;0.50;;;0.30;;
253;SDS011;590;48.772;8.846;2023-08-06T08:05:24;0.43;;;0.30;;
253;SDS011;590;48.772;8.846;2023-08-06T08:07:52;0.53;;;0.50;;
253;SDS011;590;48.772;8.846;2023-08-06T08:10:20;0.63;;;0.40;;
253;SDS011;590;48.772;8.846;2023-08-06T08:12:48;0.40;;;0.30;;
253;SDS011;590;48.772;8.846;2023-08-06T08:15:18;1.23;;;0.50;;
253;SDS011;590;48.772;8.846;2023-08-06T08:17:46;0.90;;;0.30;;
253;SDS011;590;48.772;8.846;2023-08-06T08:20:16;0.47;;;0.30;;
253;SDS011;590;48.772;8.846;2023-08-06T08:22:44;0.80;;;0.40;;
253;SDS011;590;48.772;8.846;2023-08-06T08:25:12;0.57;;;0.30;;
253;SDS011;590;48.772;8.846;2023-08-06T08:27:40;0.40;;;0.20;;
253;SDS011;590;48.772;8.846;2023-08-06T08:30:08;0.60;;;0.30;;
253;SDS011;590;48.772;8.846;2023-08-06T08:32:38;0.40;;;0.30;;
253;SDS011;590;48.772;8.846;2023-08-06T08:35:07;5.83;;;0.83;;
253;SDS011;590;48.772;8.846;2023-08-06T08:37:35;0.60;;;0.30;;
253;SDS011;590;48.772;8.846;2023-08-06T08:40:04;0.40;;;0.30;;
253;SDS011;590;48.772;8.846;2023-08-06T08:42:33;0.47;;;0.30;;
253;SDS011;590;48.772;8.846;2023-08-06T08:45:01;0.60;;;0.40;;
253;SDS011;590;48.772;8.846;2023-08-06T08:47:31;0.50;;;0.30;;
253;SDS011;590;48.772;8.846;2023-08-06T08:50:01;0.97;;;0.30;;
253;SDS011;590;48.772;8.846;2023-08-06T08:52:29;0.40;;;0.30;;
253;SDS011;590;48.772;8.846;2023-08-06T08:54:59;0.77;;;0.30;;
253;SDS011;590;48.772;8.846;2023-08-06T08:57:29;0.70;;;0.47;;
253;SDS011;590;48.772;8.846;2023-08-06T08:59:57;0.50;;;0.30;;
253;SDS011;590;48.772;8.846;2023-08-06T09:02:27;0.47;;;0.30;;
253;SDS011;590;48.772;8.846;2023-08-06T09:04:57;0.60;;;0.30;;
253;SDS011;590;48.772;8.846;2023-08-06T09:07:31;0.50;;;0.30;;
253;SDS011;590;48.772;8.846;2023-08-06T09:10:02;0.60;;;0.30;;
253;SDS011;590;48.772;8.846;2023-08-06T09:12:31;0.40;;;0.30;;
253;SDS011;590;48.772;8.846;2023-08-06T09:14:59;0.63;;;0.30;;
253;SDS011;590;48.772;8.846;2023-08-06T09:17:29;0.40;;;0.20;;
253;SDS011;590;48.772;8.846;2023-08-06T09:19:58;1.70;;;0.40;;
253;SDS011;590;48.772;8.846;2023-08-06T09:22:28;0.40;;;0.30;;
253;SDS011;590;48.772;8.846;2023-08-06T09:25:02;0.50;;;0.30;;
253;SDS011;590;48.772;8.846;2023-08-06T09:27:36;0.43;;;0.27;;
253;SDS011;590;48.772;8.846;2023-08-06T09:30:05;0.40;;;0.20;;
253;SDS011;590;48.772;8.846;2023-08-06T09:32:47;0.50;;;0.30;;
253;SDS011;590;48.772;8.846;2023-08-06T09:35:18;0.93;;;0.30;;
253;SDS011;590;48.772;8.846;2023-08-06T09:37:47;1.50;;;0.30;;
253;SDS011;590;48.772;8.846;2023-08-06T09:40:25;2.10;;;0.30;;
253;SDS011;590;48.772;8.846;2023-08-06T09:42:54;0.50;;;0.40;;
253;SDS011;590;48.772;8.846;2023-08-06T09:45:23;0.50;;;0.30;;
253;SDS011;590;48.772;8.846;2023-08-06T09:47:55;0.60;;;0.47;;
253;SDS011;590;48.772;8.846;2023-08-06T09:50:26;0.43;;;0.40;;
253;SDS011;590;48.772;8.846;2023-08-06T09:52:59;0.50;;;0.33;;
253;SDS011;590;48.772;8.846;2023-08-06T09:55:28;1.33;;;0.50;;
253;SDS011;590;48.772;8.846;2023-08-06T09:57:56;1.17;;;0.73;;
253;SDS011;590;48.772;8.846;2023-08-06T10:00:25;0.70;;;0.40;;
253;SDS011;590;48.772;8.846;2023-08-06T10:02:54;0.80;;;0.50;;
253;SDS011;590;48.772;8.846;2023-08-06T10:05:27;1.20;;;0.90;;
253;SDS011;590;48.772;8.846;2023-08-06T10:07:56;0.50;;;0.40;;
253;SDS011;590;48.772;8.846;2023-08-06T10:10:26;0.60;;;0.30;;
253;SDS011;590;48.772;8.846;2023-08-06T10:12:56;0.40;;;0.30;;
253;SDS011;590;48.772;8.846;2023-08-06T10:15:27;0.40;;;0.20;;
253;SDS011;590;48.772;8.846;2023-08-06T10:17:58;0.40;;;0.30;;
253;SDS011;590;48.772;8.846;2023-08-06T10:20:32;0.40;;;0.20;;
253;SDS011;590;48.772;8.846;2023-08-06T10:23:02;0.40;;;0.30;;
253;SDS011;590;48.772;8.846;2023-08-06T10:25:32;0.40;;;0.20;;
253;SDS011;590;48.772;8.846;2023-08-06T10:28:01;0.47;;;0.30;;
253;SDS011;590;48.772;8.846;2023-08-06T10:30:41;0.43;;;0.30;;
253;SDS011;590;48.772;8.846;2023-08-06T10:33:10;0.50;;;0.30;;
253;SDS011;590;48.772;8.846;2023-08-06T10:35:40;0.40;;;0.30;;
253;SDS011;590;48.772;8.846;2023-08-06T10:38:12;0.40;;;0.20;;
253;SDS011;590;48.772;8.846;2023-08-06T10:40:47;0.50;;;0.30;;
253;SDS011;590;48.772;8.846;2023-08-06T10:43:26;0.40;;;0.30;;
253;SDS011;590;48.772;8.846;2023-08-06T10:45:55;0.50;;;0.30;;
253;SDS011;590;48.772;8.846;2023-08-06T10:48:30;0.40;;;0.40;;
253;SDS011;590;48.772;8.846;2023-08-06T10:50:59;0.50;;;0.40;;
253;SDS011;590;48.772;8.846;2023-08-06T10:53:29;0.50;;;0.40;;
253;SDS011;590;48.772;8.846;2023-08-06T10:56:00;0.50;;;0.40;;
253;SDS011;590;48.772;8.846;2023-08-06T10:58:31;0.50;;;0.40;;
253;SDS011;590;48.772;8.846;2023-08-06T11:00:59;0.73;;;0.50;;
253;SDS011;590;48.772;8.846;2023-08-06T11:03:27;0.60;;;0.43;;
253;SDS011;590;48.772;8.846;2023-08-06T11:05:56;0.60;;;0.47;;
253;SDS011;590;48.772;8.846;2023-08-06T11:08:24;0.70;;;0.50;;
253;SDS011;590;48.772;8.846;2023-08-06T11:10:54;0.63;;;0.50;;
253;SDS011;590;48.772;8.846;2023-08-06T11:13:29;0.60;;;0.47;;
253;SDS011;590;48.772;8.846;2023-08-06T11:15:58;0.80;;;0.57;;
253;SDS011;590;48.772;8.846;2023-08-06T11:18:26;0.60;;;0.60;;
253;SDS011;590;48.772;8.846;2023-08-06T11:20:55;2.27;;;0.70;;
253;SDS011;590;48.772;8.846;2023-08-06T11:23:26;0.80;;;0.60;;
253;SDS011;590;48.772;8.846;2023-08-06T11:25:56;1.47;;;0.93;;
253;SDS011;590;48.772;8.846;2023-08-06T11:28:24;1.40;;;0.80;;
253;SDS011;590;48.772;8.846;2023-08-06T11:30:53;0.73;;;0.50;;
253;SDS011;590;48.772;8.846;2023-08-06T11:33:23;0.80;;;0.80;;
253;SDS011;590;48.772;8.846;2023-08-06T11:35:52;0.80;;;0.70;;
253;SDS011;590;48.772;8.846;2023-08-06T11:38:24;1.13;;;0.83;;
253;SDS011;590;48.772;8.846;2023-08-06T11:40:52;0.87;;;0.87;;
253;SDS011;590;48.772;8.846;2023-08-06T11:43:22;0.70;;;0.70;;
253;SDS011;590;48.772;8.846;2023-08-06T11:45:50;1.67;;;0.80;;
253;SDS011;590;48.772;8.846;2023-08-06T11:48:21;1.43;;;1.30;;
253;SDS011;590;48.772;8.846;2023-08-06T11:50:49;1.37;;;1.20;;
253;SDS011;590;48.772;8.846;2023-08-06T11:53:21;0.80;;;0.80;;
253;SDS011;590;48.772;8.846;2023-08-06T11:55:49;1.97;;;1.30;;
253;SDS011;590;48.772;8.846;2023-08-06T11:58:18;1.17;;;0.70;;
253;SDS011;590;48.772;8.846;2023-08-06T12:00:48;1.33;;;1.17;;
253;SDS011;590;48.772;8.846;2023-08-06T12:03:18;0.90;;;0.80;;
253;SDS011;590;48.772;8.846;2023-08-06T12:05:47;1.57;;;1.07;;
253;SDS011;590;48.772;8.846;2023-08-06T12:08:15;1.10;;;1.00;;
253;SDS011;590;48.772;8.846;2023-08-06T12:10:43;2.13;;;1.67;;
253;SDS011;590;48.772;8.846;2023-08-06T12:13:12;1.40;;;1.30;;
253;SDS011;590;48.772;8.846;2023-08-06T12:15:40;1.27;;;1.17;;
253;SDS011;590;48.772;8.846;2023-08-06T12:18:10;1.20;;;1.10;;
253;SDS011;590;48.772;8.846;2023-08-06T12:20:38;1.23;;;1.13;;
253;SDS011;590;48.772;8.846;2023-08-06T12:23:06;1.07;;;0.97;;
253;SDS011;590;48.772;8.846;2023-08-06T12:25:36;0.60;;;0.60;;
253;SDS011;590;48.772;8.846;2023-08-06T12:28:04;0.80;;;0.60;;
253;SDS011;590;48.772;8.846;2023-08-06T12:30:34;0.93;;;0.57;;
253;SDS011;590;48.772;8.846;2023-08-06T12:33:02;0.70;;;0.70;;
253;SDS011;590;48.772;8.846;2023-08-06T12:35:31;0.70;;;0.50;;
253;SDS011;590;48.772;8.846;2023-08-06T12:37:59;0.70;;;0.60;;
253;SDS011;590;48.772;8.846;2023-08-06T12:40:27;0.70;;;0.60;;
253;SDS011;590;48.772;8.846;2023-08-06T12:43:03;1.33;;;0.60;;
253;SDS011;590;48.772;8.846;2023-08-06T12:45:32;0.60;;;0.50;;
253;SDS011;590;48.772;8.846;2023-08-06T12:48:00;0.80;;;0.70;;
253;SDS011;590;48.772;8.846;2023-08-06T12:50:28;0.90;;;0.90;;
253;SDS011;590;48.772;8.846;2023-08-06T12:52:57;1.63;;;0.80;;
253;SDS011;590;48.772;8.846;2023-08-06T12:55:25;1.20;;;1.07;;
253;SDS011;590;48.772;8.846;2023-08-06T12:57:58;1.10;;;0.97;;
253;SDS011;590;48.772;8.846;2023-08-06T13:00:26;2.00;;;0.83;;
253;SDS011;590;48.772;8.846;2023-08-06T13:02:54;1.57;;;0.87;;
253;SDS011;590;48.772;8.846;2023-08-06T13:05:22;0.80;;;0.63;;
253;SDS011;590;48.772;8.846;2023-08-06T13:07:50;2.77;;;0.80;;
253;SDS011;590;48.772;8.846;2023-08-06T13:10:20;0.73;;;0.70;;
253;SDS011;590;48.772;8.846;2023-08-06T13:12:49;0.87;;;0.77;;
253;SDS011;590;48.772;8.846;2023-08-06T13:15:17;1.10;;;0.50;;
253;SDS011;590;48.772;8.846;2023-08-06T13:17:47;2.10;;;0.90;;
253;SDS011;590;48.772;8.846;2023-08-06T13:20:15;0.70;;;0.70;;
253;SDS011;590;48.772;8.846;2023-08-06T13:22:46;0.60;;;0.60;;
253;SDS011;590;48.772;8.846;2023-08-06T13:25:17;0.50;;;0.40;;
253;SDS011;590;48.772;8.846;2023-08-06T13:27:46;0.80;;;0.60;;
253;SDS011;590;48.772;8.846;2023-08-06T13:30:15;0.80;;;0.60;;
253;SDS011;590;48.772;8.846;2023-08-06T13:32:44;0.60;;;0.40;;
253;SDS011;590;48.772;8.846;2023-08-06T13:35:12;0.70;;;0.70;;
253;SDS011;590;48.772;8.846;2023-08-06T13:37:40;0.60;;;0.50;;
253;SDS011;590;48.772;8.846;2023-08-06T13:40:08;0.97;;;0.43;;
253;SDS011;590;48.772;8.846;2023-08-06T13:42:37;0.50;;;0.40;;
253;SDS011;590;48.772;8.846;2023-08-06T13:45:07;0.80;;;0.60;;
253;SDS011;590;48.772;8.846;2023-08-06T13:47:35;1.13;;;0.70;;
253;SDS011;590;48.772;8.846;2023-08-06T13:50:04;0.60;;;0.50;;
253;SDS011;590;48.772;8.846;2023-08-06T13:52:32;0.57;;;0.47;;
253;SDS011;590;48.772;8.846;2023-08-06T13:55:01;0.67;;;0.63;;
253;SDS011;590;48.772;8.846;2023-08-06T13:57:30;0.57;;;0.53;;
253;SDS011;590;48.772;8.846;2023-08-06T13:59:58;1.77;;;0.83;;
253;SDS011;590;48.772;8.846;2023-08-06T14:02:28;0.90;;;0.50;;
253;SDS011;590;48.772;8.846;2023-08-06T14:04:56;0.77;;;0.50;;
253;SDS011;590;48.772;8.846;2023-08-06T14:07:24;0.73;;;0.70;;
253;SDS011;590;48.772;8.846;2023-08-06T14:09:52;0.67;;;0.40;;
253;SDS011;590;48.772;8.846;2023-08-06T14:12:20;0.80;;;0.57;;
253;SDS011;590;48.772;8.846;2023-08-06T14:14:48;0.60;;;0.57;;
253;SDS011;590;48.772;8.846;2023-08-06T14:17:16;2.30;;;1.10;;
253;SDS011;590;48.772;8.846;2023-08-06T14:19:45;0.70;;;0.70;;
253;SDS011;590;48.772;8.846;2023-08-06T14:22:13;0.77;;;0.67;;
253;SDS011;590;48.772;8.846;2023-08-06T14:24:41;1.00;;;0.77;;
253;SDS011;590;48.772;8.846;2023-08-06T14:27:09;1.70;;;0.90;;
253;SDS011;590;48.772;8.846;2023-08-06T14:29:37;0.70;;;0.60;;
253;SDS011;590;48.772;8.846;2023-08-06T14:32:06;0.87;;;0.60;;
253;SDS011;590;48.772;8.846;2023-08-06T14:34:34;0.90;;;0.70;;
253;SDS011;590;48.772;8.846;2023-08-06T14:37:04;0.70;;;0.60;;
253;SDS011;590;48.772;8.846;2023-08-06T14:39:32;1.27;;;0.60;;
253;SDS011;590;48.772;8.846;2023-08-06T14:42:00;1.00;;;0.53;;
253;SDS011;590;48.772;8.846;2023-08-06T14:44:28;0.90;;;0.73;;
253;SDS011;590;48.772;8.846;2023-08-06T14:46:56;1.57;;;0.63;;
253;SDS011;590;48.772;8.846;2023-08-06T14:49:24;1.93;;;0.70;;
253;SDS011;590;48.772;8.846;2023-08-06T14:51:52;0.80;;;0.67;;
253;SDS011;590;48.772;8.846;2023-08-06T14:54:22;0.57;;;0.50;;
253;SDS011;590;48.772;8.846;2023-08-06T14:56:50;0.70;;;0.67;;
253;SDS011;590;48.772;8.846;2023-08-06T14:59:18;0.60;;;0.50;;
253;SDS011;590;48.772;8.846;2023-08-06T15:01:46;1.00;;;0.53;;
253;SDS011;590;48.772;8.846;2023-08-06T15:04:14;0.67;;;0.67;;
253;SDS011;590;48.772;8.846;2023-08-06T15:06:42;1.23;;;0.77;;
253;SDS011;590;48.772;8.846;2023-08-06T15:09:10;1.20;;;0.73;;
253;SDS011;590;48.772;8.846;2023-08-06T15:11:40;1.90;;;0.60;;
253;SDS011;590;48.772;8.846;2023-08-06T15:14:08;0.80;;;0.80;;
253;SDS011;590;48.772;8.846;2023-08-06T15:16:36;1.50;;;0.60;;
253;SDS011;590;48.772;8.846;2023-08-06T15:19:04;0.87;;;0.63;;
253;SDS011;590;48.772;8.846;2023-08-06T15:21:32;1.47;;;0.83;;
253;SDS011;590;48.772;8.846;2023-08-06T15:24:00;0.70;;;0.60;;
253;SDS011;590;48.772;8.846;2023-08-06T15:26:28;0.97;;;0.73;;
253;SDS011;590;48.772;8.846;2023-08-06T15:28:58;1.07;;;0.80;;
253;SDS011;590;48.772;8.846;2023-08-06T15:31:28;0.80;;;0.77;;
253;SDS011;590;48.772;8.846;2023-08-06T15:34:03;0.80;;;0.60;;
253;SDS011;590;48.772;8.846;2023-08-06T15:36:31;0.90;;;0.67;;
253;SDS011;590;48.772;8.846;2023-08-06T15:39:00;1.13;;;0.70;;
253;SDS011;590;48.772;8.846;2023-08-06T15:41:29;0.80;;;0.70;;
253;SDS011;590;48.772;8.846;2023-08-06T15:43:59;2.00;;;0.90;;
253;SDS011;590;48.772;8.846;2023-08-06T15:46:27;1.43;;;1.13;;
253;SDS011;590;48.772;8.846;2023-08-06T15:48:55;1.50;;;1.00;;
253;SDS011;590;48.772;8.846;2023-08-06T15:51:23;2.83;;;1.23;;
253;SDS011;590;48.772;8.846;2023-08-06T15:53:51;1.70;;;1.20;;
253;SDS011;590;48.772;8.846;2023-08-06T15:56:19;1.00;;;0.90;;